sensor_id;sensor_type;location;lat;lon;timestamp;P1;durP1;ratioP1;P2;durP2;ratioP2
68993;SDS011;56054;50.968;5.816;2023-12-20T00:01:28;26.33;;;13.23;;
68993;SDS011;56054;50.968;5.816;2023-12-20T00:04:35;18.93;;;10.07;;
68993;SDS011;56054;50.968;5.816;2023-12-20T00:07:42;17.60;;;10.27;;
68993;SDS011;56054;50.968;5.816;2023-12-20T00:10:49;14.63;;;7.30;;
68993;SDS011;56054;50.968;5.816;2023-12-20T00:13:56;16.00;;;8.10;;
68993;SDS011;56054;50.968;5.816;2023-12-20T00:17:03;18.93;;;6.73;;
68993;SDS011;56054;50.968;5.816;2023-12-20T00:20:10;10.80;;;5.17;;
68993;SDS011;56054;50.968;5.816;2023-12-20T00:23:17;16.13;;;4.53;;
68993;SDS011;56054;50.968;5.816;2023-12-20T00:26:24;14.83;;;4.30;;
68993;SDS011;56054;50.968;5.816;2023-12-20T00:29:31;13.83;;;4.83;;
68993;SDS011;56054;50.968;5.816;2023-12-20T00:32:38;6.87;;;3.13;;
68993;SDS011;56054;50.968;5.816;2023-12-20T00:35:45;13.77;;;2.33;;
68993;SDS011;56054;50.968;5.816;2023-12-20T00:38:52;10.10;;;2.00;;
68993;SDS011;56054;50.968;5.816;2023-12-20T00:41:59;14.00;;;2.37;;
68993;SDS011;56054;50.968;5.816;2023-12-20T00:45:06;10.80;;;1.60;;
68993;SDS011;56054;50.968;5.816;2023-12-20T00:48:13;11.00;;;1.70;;
68993;SDS011;56054;50.968;5.816;2023-12-20T00:51:20;11.83;;;1.67;;
68993;SDS011;56054;50.968;5.816;2023-12-20T00:54:27;9.27;;;1.47;;
68993;SDS011;56054;50.968;5.816;2023-12-20T00:57:34;11.33;;;1.40;;
68993;SDS011;56054;50.968;5.816;2023-12-20T01:00:41;7.93;;;1.10;;
68993;SDS011;56054;50.968;5.816;2023-12-20T01:03:48;12.53;;;1.80;;
68993;SDS011;56054;50.968;5.816;2023-12-20T01:06:55;11.10;;;1.53;;
68993;SDS011;56054;50.968;5.816;2023-12-20T01:10:02;8.03;;;1.50;;
68993;SDS011;56054;50.968;5.816;2023-12-20T01:13:16;11.43;;;1.60;;
68993;SDS011;56054;50.968;5.816;2023-12-20T01:16:23;9.83;;;1.50;;
68993;SDS011;56054;50.968;5.816;2023-12-20T01:19:30;13.87;;;1.90;;
68993;SDS011;56054;50.968;5.816;2023-12-20T01:22:37;17.37;;;2.00;;
68993;SDS011;56054;50.968;5.816;2023-12-20T01:25:45;7.93;;;1.50;;
68993;SDS011;56054;50.968;5.816;2023-12-20T01:28:52;9.00;;;1.93;;
68993;SDS011;56054;50.968;5.816;2023-12-20T01:31:59;11.77;;;1.90;;
68993;SDS011;56054;50.968;5.816;2023-12-20T01:35:06;11.47;;;1.73;;
68993;SDS011;56054;50.968;5.816;2023-12-20T01:38:13;11.87;;;2.33;;
68993;SDS011;56054;50.968;5.816;2023-12-20T01:41:20;9.87;;;1.80;;
68993;SDS011;56054;50.968;5.816;2023-12-20T01:44:27;15.73;;;2.00;;
68993;SDS011;56054;50.968;5.816;2023-12-20T01:47:34;7.33;;;1.50;;
68993;SDS011;56054;50.968;5.816;2023-12-20T01:50:43;7.40;;;1.70;;
68993;SDS011;56054;50.968;5.816;2023-12-20T01:53:51;5.33;;;1.30;;
68993;SDS011;56054;50.968;5.816;2023-12-20T01:56:58;8.50;;;1.80;;
68993;SDS011;56054;50.968;5.816;2023-12-20T02:00:06;8.90;;;2.13;;
68993;SDS011;56054;50.968;5.816;2023-12-20T02:03:13;5.87;;;2.03;;
68993;SDS011;56054;50.968;5.816;2023-12-20T02:06:21;11.33;;;1.70;;
68993;SDS011;56054;50.968;5.816;2023-12-20T02:09:29;8.57;;;1.53;;
68993;SDS011;56054;50.968;5.816;2023-12-20T02:12:36;5.63;;;1.40;;
68993;SDS011;56054;50.968;5.816;2023-12-20T02:15:44;9.20;;;2.00;;
68993;SDS011;56054;50.968;5.816;2023-12-20T02:18:50;14.93;;;2.07;;
68993;SDS011;56054;50.968;5.816;2023-12-20T02:25:14;13.53;;;2.43;;
68993;SDS011;56054;50.968;5.816;2023-12-20T02:28:21;14.57;;;2.30;;
68993;SDS011;56054;50.968;5.816;2023-12-20T02:31:28;9.87;;;2.27;;
68993;SDS011;56054;50.968;5.816;2023-12-20T02:34:35;5.83;;;2.43;;
68993;SDS011;56054;50.968;5.816;2023-12-20T02:37:42;7.23;;;2.10;;
68993;SDS011;56054;50.968;5.816;2023-12-20T02:40:49;16.10;;;2.03;;
68993;SDS011;56054;50.968;5.816;2023-12-20T02:43:56;7.97;;;2.40;;
68993;SDS011;56054;50.968;5.816;2023-12-20T02:47:03;15.37;;;2.90;;
68993;SDS011;56054;50.968;5.816;2023-12-20T02:50:10;15.37;;;2.43;;
68993;SDS011;56054;50.968;5.816;2023-12-20T02:53:17;11.83;;;2.77;;
68993;SDS011;56054;50.968;5.816;2023-12-20T02:56:24;10.33;;;2.43;;
68993;SDS011;56054;50.968;5.816;2023-12-20T02:59:31;9.77;;;2.43;;
68993;SDS011;56054;50.968;5.816;2023-12-20T03:02:38;14.03;;;3.13;;
68993;SDS011;56054;50.968;5.816;2023-12-20T03:05:45;19.30;;;2.63;;
68993;SDS011;56054;50.968;5.816;2023-12-20T03:08:52;6.57;;;2.50;;
68993;SDS011;56054;50.968;5.816;2023-12-20T03:11:59;11.43;;;2.47;;
68993;SDS011;56054;50.968;5.816;2023-12-20T03:15:06;11.47;;;2.73;;
68993;SDS011;56054;50.968;5.816;2023-12-20T03:18:13;10.63;;;2.50;;
68993;SDS011;56054;50.968;5.816;2023-12-20T03:21:20;11.57;;;2.87;;
68993;SDS011;56054;50.968;5.816;2023-12-20T03:24:27;10.67;;;2.50;;
68993;SDS011;56054;50.968;5.816;2023-12-20T03:27:36;12.27;;;2.47;;
68993;SDS011;56054;50.968;5.816;2023-12-20T03:30:43;14.07;;;2.27;;
68993;SDS011;56054;50.968;5.816;2023-12-20T03:33:50;11.37;;;2.77;;
68993;SDS011;56054;50.968;5.816;2023-12-20T03:36:57;17.90;;;2.50;;
68993;SDS011;56054;50.968;5.816;2023-12-20T03:40:04;9.23;;;3.20;;
68993;SDS011;56054;50.968;5.816;2023-12-20T03:43:11;12.37;;;3.10;;
68993;SDS011;56054;50.968;5.816;2023-12-20T03:46:18;12.63;;;2.33;;
68993;SDS011;56054;50.968;5.816;2023-12-20T03:49:25;15.07;;;2.53;;
68993;SDS011;56054;50.968;5.816;2023-12-20T03:52:32;4.03;;;1.93;;
68993;SDS011;56054;50.968;5.816;2023-12-20T03:55:46;12.00;;;2.70;;
68993;SDS011;56054;50.968;5.816;2023-12-20T03:58:53;17.40;;;2.40;;
68993;SDS011;56054;50.968;5.816;2023-12-20T04:02:00;8.37;;;2.20;;
68993;SDS011;56054;50.968;5.816;2023-12-20T04:05:08;13.97;;;2.53;;
68993;SDS011;56054;50.968;5.816;2023-12-20T04:08:15;12.00;;;2.60;;
68993;SDS011;56054;50.968;5.816;2023-12-20T04:11:22;12.57;;;2.10;;
68993;SDS011;56054;50.968;5.816;2023-12-20T04:14:29;12.53;;;2.33;;
68993;SDS011;56054;50.968;5.816;2023-12-20T04:17:36;6.90;;;2.00;;
68993;SDS011;56054;50.968;5.816;2023-12-20T04:20:43;12.00;;;2.90;;
68993;SDS011;56054;50.968;5.816;2023-12-20T04:23:50;10.30;;;2.20;;
68993;SDS011;56054;50.968;5.816;2023-12-20T04:26:57;10.63;;;2.33;;
68993;SDS011;56054;50.968;5.816;2023-12-20T04:30:04;10.40;;;2.50;;
68993;SDS011;56054;50.968;5.816;2023-12-20T04:33:12;12.27;;;2.90;;
68993;SDS011;56054;50.968;5.816;2023-12-20T04:36:19;9.57;;;2.60;;
68993;SDS011;56054;50.968;5.816;2023-12-20T04:39:26;14.00;;;2.60;;
68993;SDS011;56054;50.968;5.816;2023-12-20T04:42:33;8.40;;;2.50;;
68993;SDS011;56054;50.968;5.816;2023-12-20T04:45:40;8.00;;;2.43;;
68993;SDS011;56054;50.968;5.816;2023-12-20T04:48:49;9.67;;;2.73;;
68993;SDS011;56054;50.968;5.816;2023-12-20T04:51:55;18.90;;;3.40;;
68993;SDS011;56054;50.968;5.816;2023-12-20T04:55:02;23.10;;;3.80;;
68993;SDS011;56054;50.968;5.816;2023-12-20T04:58:09;11.13;;;3.07;;
68993;SDS011;56054;50.968;5.816;2023-12-20T05:01:16;15.67;;;2.70;;
68993;SDS011;56054;50.968;5.816;2023-12-20T05:04:23;9.67;;;2.97;;
68993;SDS011;56054;50.968;5.816;2023-12-20T05:07:31;15.57;;;2.43;;
68993;SDS011;56054;50.968;5.816;2023-12-20T05:10:37;10.60;;;2.57;;
68993;SDS011;56054;50.968;5.816;2023-12-20T05:13:44;12.40;;;2.70;;
68993;SDS011;56054;50.968;5.816;2023-12-20T05:16:51;12.43;;;2.43;;
68993;SDS011;56054;50.968;5.816;2023-12-20T05:19:58;10.63;;;2.63;;
68993;SDS011;56054;50.968;5.816;2023-12-20T05:23:06;15.40;;;2.33;;
68993;SDS011;56054;50.968;5.816;2023-12-20T05:26:13;9.50;;;2.50;;
68993;SDS011;56054;50.968;5.816;2023-12-20T05:29:20;16.63;;;3.23;;
68993;SDS011;56054;50.968;5.816;2023-12-20T05:32:27;10.77;;;2.10;;
68993;SDS011;56054;50.968;5.816;2023-12-20T05:35:34;19.47;;;3.00;;
68993;SDS011;56054;50.968;5.816;2023-12-20T05:38:41;15.40;;;2.90;;
68993;SDS011;56054;50.968;5.816;2023-12-20T05:41:48;12.93;;;2.93;;
68993;SDS011;56054;50.968;5.816;2023-12-20T05:44:55;15.43;;;3.17;;
68993;SDS011;56054;50.968;5.816;2023-12-20T05:48:02;10.23;;;2.57;;
68993;SDS011;56054;50.968;5.816;2023-12-20T05:51:13;12.37;;;2.73;;
68993;SDS011;56054;50.968;5.816;2023-12-20T05:54:20;15.57;;;3.73;;
68993;SDS011;56054;50.968;5.816;2023-12-20T05:57:27;18.43;;;3.47;;
68993;SDS011;56054;50.968;5.816;2023-12-20T06:00:34;14.17;;;3.43;;
68993;SDS011;56054;50.968;5.816;2023-12-20T06:03:41;13.43;;;3.40;;
68993;SDS011;56054;50.968;5.816;2023-12-20T06:06:48;14.97;;;2.90;;
68993;SDS011;56054;50.968;5.816;2023-12-20T06:09:55;19.37;;;3.37;;
68993;SDS011;56054;50.968;5.816;2023-12-20T06:13:02;11.27;;;3.43;;
68993;SDS011;56054;50.968;5.816;2023-12-20T06:16:09;10.93;;;3.33;;
68993;SDS011;56054;50.968;5.816;2023-12-20T06:19:16;18.50;;;3.30;;
68993;SDS011;56054;50.968;5.816;2023-12-20T06:22:23;13.97;;;3.33;;
68993;SDS011;56054;50.968;5.816;2023-12-20T06:25:30;15.90;;;3.33;;
68993;SDS011;56054;50.968;5.816;2023-12-20T06:28:37;15.93;;;3.20;;
68993;SDS011;56054;50.968;5.816;2023-12-20T06:31:44;22.63;;;3.60;;
68993;SDS011;56054;50.968;5.816;2023-12-20T06:34:51;11.10;;;2.97;;
68993;SDS011;56054;50.968;5.816;2023-12-20T06:37:58;13.47;;;2.93;;
68993;SDS011;56054;50.968;5.816;2023-12-20T06:41:05;9.27;;;3.83;;
68993;SDS011;56054;50.968;5.816;2023-12-20T06:44:12;13.50;;;3.10;;
68993;SDS011;56054;50.968;5.816;2023-12-20T06:47:19;13.70;;;3.30;;
68993;SDS011;56054;50.968;5.816;2023-12-20T06:50:26;16.90;;;3.60;;
68993;SDS011;56054;50.968;5.816;2023-12-20T06:53:33;11.47;;;3.47;;
68993;SDS011;56054;50.968;5.816;2023-12-20T06:56:40;19.10;;;3.80;;
68993;SDS011;56054;50.968;5.816;2023-12-20T06:59:47;21.03;;;4.07;;
68993;SDS011;56054;50.968;5.816;2023-12-20T07:02:54;11.23;;;3.20;;
68993;SDS011;56054;50.968;5.816;2023-12-20T07:06:01;23.27;;;3.27;;
68993;SDS011;56054;50.968;5.816;2023-12-20T07:09:08;18.40;;;4.33;;
68993;SDS011;56054;50.968;5.816;2023-12-20T07:12:15;23.57;;;5.13;;
68993;SDS011;56054;50.968;5.816;2023-12-20T07:15:22;19.53;;;3.73;;
68993;SDS011;56054;50.968;5.816;2023-12-20T07:18:29;18.23;;;3.80;;
68993;SDS011;56054;50.968;5.816;2023-12-20T07:21:36;11.70;;;3.17;;
68993;SDS011;56054;50.968;5.816;2023-12-20T07:24:43;20.03;;;4.10;;
68993;SDS011;56054;50.968;5.816;2023-12-20T07:27:50;18.77;;;3.40;;
68993;SDS011;56054;50.968;5.816;2023-12-20T07:30:57;22.60;;;3.80;;
68993;SDS011;56054;50.968;5.816;2023-12-20T07:34:04;15.73;;;2.87;;
68993;SDS011;56054;50.968;5.816;2023-12-20T07:37:11;14.27;;;3.60;;
68993;SDS011;56054;50.968;5.816;2023-12-20T07:40:18;10.40;;;3.00;;
68993;SDS011;56054;50.968;5.816;2023-12-20T07:43:32;13.83;;;2.70;;
68993;SDS011;56054;50.968;5.816;2023-12-20T07:46:39;13.20;;;3.23;;
68993;SDS011;56054;50.968;5.816;2023-12-20T07:49:49;12.70;;;3.27;;
68993;SDS011;56054;50.968;5.816;2023-12-20T07:52:56;21.77;;;3.30;;
68993;SDS011;56054;50.968;5.816;2023-12-20T07:56:13;16.23;;;3.67;;
68993;SDS011;56054;50.968;5.816;2023-12-20T07:59:23;21.17;;;3.03;;
68993;SDS011;56054;50.968;5.816;2023-12-20T08:02:30;11.77;;;3.00;;
68993;SDS011;56054;50.968;5.816;2023-12-20T08:05:38;20.30;;;3.50;;
68993;SDS011;56054;50.968;5.816;2023-12-20T08:08:44;17.07;;;3.47;;
68993;SDS011;56054;50.968;5.816;2023-12-20T08:11:51;9.37;;;3.83;;
68993;SDS011;56054;50.968;5.816;2023-12-20T08:14:58;11.27;;;2.93;;
68993;SDS011;56054;50.968;5.816;2023-12-20T08:18:05;12.60;;;3.20;;
68993;SDS011;56054;50.968;5.816;2023-12-20T08:21:12;21.23;;;4.33;;
68993;SDS011;56054;50.968;5.816;2023-12-20T08:24:19;17.87;;;3.50;;
68993;SDS011;56054;50.968;5.816;2023-12-20T08:27:26;28.43;;;3.87;;
68993;SDS011;56054;50.968;5.816;2023-12-20T08:30:33;13.47;;;2.97;;
68993;SDS011;56054;50.968;5.816;2023-12-20T08:33:40;8.57;;;2.37;;
68993;SDS011;56054;50.968;5.816;2023-12-20T08:36:47;15.67;;;2.73;;
68993;SDS011;56054;50.968;5.816;2023-12-20T08:39:54;14.07;;;3.03;;
68993;SDS011;56054;50.968;5.816;2023-12-20T08:43:02;16.33;;;2.83;;
68993;SDS011;56054;50.968;5.816;2023-12-20T08:46:09;19.67;;;3.20;;
68993;SDS011;56054;50.968;5.816;2023-12-20T08:49:16;23.13;;;3.00;;
68993;SDS011;56054;50.968;5.816;2023-12-20T08:52:23;11.03;;;2.87;;
68993;SDS011;56054;50.968;5.816;2023-12-20T08:55:30;16.93;;;2.63;;
68993;SDS011;56054;50.968;5.816;2023-12-20T08:58:37;14.03;;;2.27;;
68993;SDS011;56054;50.968;5.816;2023-12-20T09:01:44;12.83;;;2.43;;
68993;SDS011;56054;50.968;5.816;2023-12-20T09:04:51;12.80;;;2.97;;
68993;SDS011;56054;50.968;5.816;2023-12-20T09:07:58;12.17;;;2.73;;
68993;SDS011;56054;50.968;5.816;2023-12-20T09:11:06;20.10;;;2.40;;
68993;SDS011;56054;50.968;5.816;2023-12-20T09:14:13;14.47;;;2.57;;
68993;SDS011;56054;50.968;5.816;2023-12-20T09:17:20;7.07;;;2.00;;
68993;SDS011;56054;50.968;5.816;2023-12-20T09:20:27;14.33;;;2.70;;
68993;SDS011;56054;50.968;5.816;2023-12-20T09:23:34;15.33;;;2.33;;
68993;SDS011;56054;50.968;5.816;2023-12-20T09:26:41;6.83;;;1.90;;
68993;SDS011;56054;50.968;5.816;2023-12-20T09:29:50;13.87;;;2.20;;
68993;SDS011;56054;50.968;5.816;2023-12-20T09:32:57;11.70;;;2.50;;
68993;SDS011;56054;50.968;5.816;2023-12-20T09:36:03;11.47;;;1.87;;
68993;SDS011;56054;50.968;5.816;2023-12-20T09:39:10;14.03;;;2.20;;
68993;SDS011;56054;50.968;5.816;2023-12-20T09:43:20;16.83;;;2.23;;
68993;SDS011;56054;50.968;5.816;2023-12-20T09:46:09;11.77;;;2.90;;
68993;SDS011;56054;50.968;5.816;2023-12-20T09:49:19;9.33;;;2.53;;
68993;SDS011;56054;50.968;5.816;2023-12-20T09:52:25;9.13;;;2.50;;
68993;SDS011;56054;50.968;5.816;2023-12-20T09:55:32;5.77;;;1.83;;
68993;SDS011;56054;50.968;5.816;2023-12-20T09:58:46;13.67;;;2.80;;
68993;SDS011;56054;50.968;5.816;2023-12-20T10:01:54;15.13;;;2.30;;
68993;SDS011;56054;50.968;5.816;2023-12-20T10:05:01;12.10;;;2.30;;
68993;SDS011;56054;50.968;5.816;2023-12-20T10:08:08;13.70;;;2.37;;
68993;SDS011;56054;50.968;5.816;2023-12-20T10:11:15;11.80;;;2.40;;
68993;SDS011;56054;50.968;5.816;2023-12-20T10:14:23;15.33;;;3.27;;
68993;SDS011;56054;50.968;5.816;2023-12-20T10:17:29;9.93;;;2.10;;
68993;SDS011;56054;50.968;5.816;2023-12-20T10:20:36;10.20;;;2.37;;
68993;SDS011;56054;50.968;5.816;2023-12-20T10:23:43;16.80;;;2.13;;
68993;SDS011;56054;50.968;5.816;2023-12-20T10:27:00;12.40;;;2.90;;
68993;SDS011;56054;50.968;5.816;2023-12-20T10:30:11;12.33;;;2.03;;
68993;SDS011;56054;50.968;5.816;2023-12-20T10:33:27;14.03;;;2.83;;
68993;SDS011;56054;50.968;5.816;2023-12-20T10:36:34;11.57;;;2.27;;
68993;SDS011;56054;50.968;5.816;2023-12-20T10:39:42;10.33;;;1.63;;
68993;SDS011;56054;50.968;5.816;2023-12-20T10:42:49;15.67;;;1.80;;
68993;SDS011;56054;50.968;5.816;2023-12-20T10:45:57;14.80;;;2.33;;
68993;SDS011;56054;50.968;5.816;2023-12-20T10:49:05;10.77;;;1.80;;
68993;SDS011;56054;50.968;5.816;2023-12-20T10:52:14;9.60;;;2.23;;
68993;SDS011;56054;50.968;5.816;2023-12-20T10:55:24;17.23;;;2.60;;
68993;SDS011;56054;50.968;5.816;2023-12-20T10:58:32;9.33;;;2.30;;
68993;SDS011;56054;50.968;5.816;2023-12-20T11:01:41;14.13;;;2.90;;
68993;SDS011;56054;50.968;5.816;2023-12-20T11:04:53;17.37;;;2.43;;
68993;SDS011;56054;50.968;5.816;2023-12-20T11:08:15;14.43;;;2.63;;
68993;SDS011;56054;50.968;5.816;2023-12-20T11:11:30;11.97;;;2.73;;
68993;SDS011;56054;50.968;5.816;2023-12-20T11:14:53;13.40;;;2.63;;
68993;SDS011;56054;50.968;5.816;2023-12-20T11:18:01;12.70;;;3.23;;
68993;SDS011;56054;50.968;5.816;2023-12-20T11:21:10;8.17;;;2.00;;
68993;SDS011;56054;50.968;5.816;2023-12-20T11:24:21;14.70;;;2.80;;
68993;SDS011;56054;50.968;5.816;2023-12-20T11:27:28;12.40;;;2.63;;
68993;SDS011;56054;50.968;5.816;2023-12-20T11:33:54;11.50;;;2.77;;
68993;SDS011;56054;50.968;5.816;2023-12-20T11:37:19;10.40;;;3.20;;
68993;SDS011;56054;50.968;5.816;2023-12-20T11:40:26;15.80;;;2.87;;
68993;SDS011;56054;50.968;5.816;2023-12-20T11:43:37;9.50;;;2.63;;
68993;SDS011;56054;50.968;5.816;2023-12-20T11:46:44;14.83;;;2.80;;
68993;SDS011;56054;50.968;5.816;2023-12-20T11:49:51;12.47;;;2.83;;
68993;SDS011;56054;50.968;5.816;2023-12-20T11:52:58;14.90;;;2.80;;
68993;SDS011;56054;50.968;5.816;2023-12-20T11:56:06;16.33;;;2.67;;
68993;SDS011;56054;50.968;5.816;2023-12-20T11:59:14;10.23;;;3.03;;
68993;SDS011;56054;50.968;5.816;2023-12-20T12:02:20;14.97;;;2.80;;
68993;SDS011;56054;50.968;5.816;2023-12-20T12:05:30;9.87;;;2.63;;
68993;SDS011;56054;50.968;5.816;2023-12-20T12:08:37;16.27;;;3.37;;
68993;SDS011;56054;50.968;5.816;2023-12-20T12:11:44;14.63;;;2.57;;
68993;SDS011;56054;50.968;5.816;2023-12-20T12:14:51;12.73;;;2.93;;
68993;SDS011;56054;50.968;5.816;2023-12-20T12:17:58;9.73;;;2.17;;
68993;SDS011;56054;50.968;5.816;2023-12-20T12:21:05;13.07;;;3.03;;
68993;SDS011;56054;50.968;5.816;2023-12-20T12:24:12;11.30;;;2.53;;
68993;SDS011;56054;50.968;5.816;2023-12-20T12:27:19;14.07;;;3.03;;
68993;SDS011;56054;50.968;5.816;2023-12-20T12:30:27;10.97;;;2.50;;
68993;SDS011;56054;50.968;5.816;2023-12-20T12:33:34;16.53;;;2.70;;
68993;SDS011;56054;50.968;5.816;2023-12-20T12:36:41;12.43;;;2.73;;
68993;SDS011;56054;50.968;5.816;2023-12-20T12:39:56;14.10;;;2.67;;
68993;SDS011;56054;50.968;5.816;2023-12-20T12:43:03;9.63;;;2.93;;
68993;SDS011;56054;50.968;5.816;2023-12-20T12:46:09;12.57;;;2.87;;
68993;SDS011;56054;50.968;5.816;2023-12-20T12:49:23;9.70;;;2.20;;
68993;SDS011;56054;50.968;5.816;2023-12-20T12:52:30;16.37;;;2.57;;
68993;SDS011;56054;50.968;5.816;2023-12-20T12:55:37;13.17;;;2.73;;
68993;SDS011;56054;50.968;5.816;2023-12-20T12:58:45;15.10;;;3.00;;
68993;SDS011;56054;50.968;5.816;2023-12-20T13:01:51;9.33;;;2.37;;
68993;SDS011;56054;50.968;5.816;2023-12-20T13:04:58;19.60;;;3.40;;
68993;SDS011;56054;50.968;5.816;2023-12-20T13:08:06;13.87;;;2.83;;
68993;SDS011;56054;50.968;5.816;2023-12-20T13:11:13;19.57;;;4.00;;
68993;SDS011;56054;50.968;5.816;2023-12-20T13:14:19;11.73;;;2.37;;
68993;SDS011;56054;50.968;5.816;2023-12-20T13:17:26;12.27;;;2.47;;
68993;SDS011;56054;50.968;5.816;2023-12-20T13:20:33;10.17;;;2.70;;
68993;SDS011;56054;50.968;5.816;2023-12-20T13:23:40;9.67;;;2.40;;
68993;SDS011;56054;50.968;5.816;2023-12-20T13:26:47;14.47;;;3.20;;
68993;SDS011;56054;50.968;5.816;2023-12-20T13:29:54;12.90;;;2.87;;
68993;SDS011;56054;50.968;5.816;2023-12-20T13:33:02;14.27;;;2.80;;
68993;SDS011;56054;50.968;5.816;2023-12-20T13:36:08;10.33;;;2.63;;
68993;SDS011;56054;50.968;5.816;2023-12-20T13:39:16;10.80;;;2.80;;
68993;SDS011;56054;50.968;5.816;2023-12-20T13:42:22;10.27;;;2.67;;
68993;SDS011;56054;50.968;5.816;2023-12-20T13:45:30;9.13;;;2.63;;
68993;SDS011;56054;50.968;5.816;2023-12-20T13:48:36;11.33;;;3.40;;
68993;SDS011;56054;50.968;5.816;2023-12-20T13:51:44;12.93;;;2.90;;
68993;SDS011;56054;50.968;5.816;2023-12-20T13:54:51;9.67;;;2.67;;
68993;SDS011;56054;50.968;5.816;2023-12-20T13:57:57;14.37;;;2.93;;
68993;SDS011;56054;50.968;5.816;2023-12-20T14:01:04;15.10;;;4.00;;
68993;SDS011;56054;50.968;5.816;2023-12-20T14:04:11;12.00;;;3.30;;
68993;SDS011;56054;50.968;5.816;2023-12-20T14:07:19;15.47;;;2.70;;
68993;SDS011;56054;50.968;5.816;2023-12-20T14:10:26;11.73;;;2.43;;
68993;SDS011;56054;50.968;5.816;2023-12-20T14:13:32;9.70;;;2.73;;
68993;SDS011;56054;50.968;5.816;2023-12-20T14:16:39;12.03;;;2.63;;
68993;SDS011;56054;50.968;5.816;2023-12-20T14:19:47;15.13;;;4.03;;
68993;SDS011;56054;50.968;5.816;2023-12-20T14:22:53;15.73;;;3.30;;
68993;SDS011;56054;50.968;5.816;2023-12-20T14:26:01;11.70;;;2.73;;
68993;SDS011;56054;50.968;5.816;2023-12-20T14:29:08;9.73;;;2.70;;
68993;SDS011;56054;50.968;5.816;2023-12-20T14:32:15;14.67;;;2.70;;
68993;SDS011;56054;50.968;5.816;2023-12-20T14:35:28;8.83;;;2.50;;
68993;SDS011;56054;50.968;5.816;2023-12-20T14:38:36;18.47;;;2.87;;
68993;SDS011;56054;50.968;5.816;2023-12-20T14:41:44;15.10;;;3.07;;
68993;SDS011;56054;50.968;5.816;2023-12-20T14:44:51;16.20;;;3.23;;
68993;SDS011;56054;50.968;5.816;2023-12-20T14:47:58;11.53;;;2.93;;
68993;SDS011;56054;50.968;5.816;2023-12-20T14:51:05;11.30;;;2.80;;
68993;SDS011;56054;50.968;5.816;2023-12-20T14:54:12;9.77;;;3.07;;
68993;SDS011;56054;50.968;5.816;2023-12-20T14:57:19;9.53;;;2.80;;
68993;SDS011;56054;50.968;5.816;2023-12-20T15:00:26;8.57;;;2.63;;
68993;SDS011;56054;50.968;5.816;2023-12-20T15:03:33;16.60;;;3.50;;
68993;SDS011;56054;50.968;5.816;2023-12-20T15:06:40;9.80;;;2.80;;
68993;SDS011;56054;50.968;5.816;2023-12-20T15:09:47;12.57;;;3.27;;
68993;SDS011;56054;50.968;5.816;2023-12-20T15:12:54;17.53;;;3.30;;
68993;SDS011;56054;50.968;5.816;2023-12-20T15:16:01;6.47;;;2.70;;
68993;SDS011;56054;50.968;5.816;2023-12-20T15:19:08;6.50;;;2.83;;
68993;SDS011;56054;50.968;5.816;2023-12-20T15:22:15;18.80;;;2.47;;
68993;SDS011;56054;50.968;5.816;2023-12-20T15:25:22;12.83;;;2.97;;
68993;SDS011;56054;50.968;5.816;2023-12-20T15:28:29;13.50;;;3.07;;
68993;SDS011;56054;50.968;5.816;2023-12-20T15:31:37;11.10;;;2.80;;
68993;SDS011;56054;50.968;5.816;2023-12-20T15:34:48;13.00;;;3.10;;
68993;SDS011;56054;50.968;5.816;2023-12-20T15:37:55;9.73;;;2.43;;
68993;SDS011;56054;50.968;5.816;2023-12-20T15:41:02;12.87;;;2.63;;
68993;SDS011;56054;50.968;5.816;2023-12-20T15:44:09;10.60;;;2.90;;
68993;SDS011;56054;50.968;5.816;2023-12-20T15:47:16;8.70;;;2.60;;
68993;SDS011;56054;50.968;5.816;2023-12-20T15:50:23;15.80;;;3.93;;
68993;SDS011;56054;50.968;5.816;2023-12-20T15:53:30;8.53;;;2.67;;
68993;SDS011;56054;50.968;5.816;2023-12-20T15:56:37;14.90;;;3.37;;
68993;SDS011;56054;50.968;5.816;2023-12-20T15:59:44;18.13;;;3.90;;
68993;SDS011;56054;50.968;5.816;2023-12-20T16:02:51;13.10;;;3.03;;
68993;SDS011;56054;50.968;5.816;2023-12-20T16:05:58;12.00;;;3.00;;
68993;SDS011;56054;50.968;5.816;2023-12-20T16:09:05;12.47;;;3.80;;
68993;SDS011;56054;50.968;5.816;2023-12-20T16:12:12;15.20;;;4.63;;
68993;SDS011;56054;50.968;5.816;2023-12-20T16:15:19;14.07;;;3.10;;
68993;SDS011;56054;50.968;5.816;2023-12-20T16:18:26;14.60;;;3.27;;
68993;SDS011;56054;50.968;5.816;2023-12-20T16:21:33;15.73;;;3.60;;
68993;SDS011;56054;50.968;5.816;2023-12-20T16:24:40;9.57;;;3.77;;
68993;SDS011;56054;50.968;5.816;2023-12-20T16:27:47;14.53;;;2.90;;
68993;SDS011;56054;50.968;5.816;2023-12-20T16:30:54;26.70;;;7.27;;
68993;SDS011;56054;50.968;5.816;2023-12-20T16:34:07;26.27;;;10.97;;
68993;SDS011;56054;50.968;5.816;2023-12-20T16:37:15;28.53;;;9.87;;
68993;SDS011;56054;50.968;5.816;2023-12-20T16:40:22;21.10;;;6.07;;
68993;SDS011;56054;50.968;5.816;2023-12-20T16:43:29;15.93;;;4.03;;
68993;SDS011;56054;50.968;5.816;2023-12-20T16:46:36;21.43;;;6.33;;
68993;SDS011;56054;50.968;5.816;2023-12-20T16:49:43;14.70;;;4.47;;
68993;SDS011;56054;50.968;5.816;2023-12-20T16:52:50;22.57;;;5.43;;
68993;SDS011;56054;50.968;5.816;2023-12-20T16:55:57;11.70;;;3.77;;
68993;SDS011;56054;50.968;5.816;2023-12-20T16:59:04;19.73;;;3.40;;
68993;SDS011;56054;50.968;5.816;2023-12-20T17:02:11;14.87;;;7.20;;
68993;SDS011;56054;50.968;5.816;2023-12-20T17:05:18;11.77;;;3.97;;
68993;SDS011;56054;50.968;5.816;2023-12-20T17:08:25;14.80;;;4.30;;
68993;SDS011;56054;50.968;5.816;2023-12-20T17:11:32;16.20;;;3.33;;
68993;SDS011;56054;50.968;5.816;2023-12-20T17:14:39;21.07;;;5.60;;
68993;SDS011;56054;50.968;5.816;2023-12-20T17:17:46;16.07;;;4.20;;
68993;SDS011;56054;50.968;5.816;2023-12-20T17:20:53;11.50;;;3.37;;
68993;SDS011;56054;50.968;5.816;2023-12-20T17:24:00;20.63;;;3.90;;
68993;SDS011;56054;50.968;5.816;2023-12-20T17:27:07;10.50;;;2.67;;
68993;SDS011;56054;50.968;5.816;2023-12-20T17:30:14;14.67;;;3.60;;
68993;SDS011;56054;50.968;5.816;2023-12-20T17:33:21;14.23;;;3.50;;
68993;SDS011;56054;50.968;5.816;2023-12-20T17:36:28;9.47;;;3.23;;
68993;SDS011;56054;50.968;5.816;2023-12-20T17:39:35;14.80;;;4.50;;
68993;SDS011;56054;50.968;5.816;2023-12-20T17:42:42;16.00;;;3.57;;
68993;SDS011;56054;50.968;5.816;2023-12-20T17:45:51;9.53;;;3.37;;
68993;SDS011;56054;50.968;5.816;2023-12-20T17:48:58;9.33;;;2.93;;
68993;SDS011;56054;50.968;5.816;2023-12-20T17:52:05;11.93;;;2.93;;
68993;SDS011;56054;50.968;5.816;2023-12-20T17:55:12;20.80;;;3.60;;
68993;SDS011;56054;50.968;5.816;2023-12-20T17:58:19;17.60;;;3.23;;
68993;SDS011;56054;50.968;5.816;2023-12-20T18:01:26;13.77;;;4.20;;
68993;SDS011;56054;50.968;5.816;2023-12-20T18:04:33;13.17;;;3.20;;
68993;SDS011;56054;50.968;5.816;2023-12-20T18:07:40;19.27;;;5.30;;
68993;SDS011;56054;50.968;5.816;2023-12-20T18:10:47;20.17;;;4.97;;
68993;SDS011;56054;50.968;5.816;2023-12-20T18:13:54;21.23;;;4.87;;
68993;SDS011;56054;50.968;5.816;2023-12-20T18:17:01;13.03;;;6.20;;
68993;SDS011;56054;50.968;5.816;2023-12-20T18:20:08;23.03;;;4.77;;
68993;SDS011;56054;50.968;5.816;2023-12-20T18:23:15;14.50;;;6.20;;
68993;SDS011;56054;50.968;5.816;2023-12-20T18:26:22;10.13;;;3.63;;
68993;SDS011;56054;50.968;5.816;2023-12-20T18:29:29;13.40;;;3.47;;
68993;SDS011;56054;50.968;5.816;2023-12-20T18:32:36;14.30;;;3.43;;
68993;SDS011;56054;50.968;5.816;2023-12-20T18:35:43;9.30;;;3.33;;
68993;SDS011;56054;50.968;5.816;2023-12-20T18:38:50;12.20;;;4.10;;
68993;SDS011;56054;50.968;5.816;2023-12-20T18:42:04;12.27;;;3.70;;